sensor_id;sensor_type;location;lat;lon;timestamp;temperature;humidity
14877;DHT22;69691;48.172;17.070;2023-11-21T00:00:31;10.80;79.80
14877;DHT22;69691;48.172;17.070;2023-11-21T00:02:57;10.80;79.50
14877;DHT22;69691;48.172;17.070;2023-11-21T00:05:23;10.80;79.20
14877;DHT22;69691;48.172;17.070;2023-11-21T00:07:49;10.80;79.90
14877;DHT22;69691;48.172;17.070;2023-11-21T00:10:15;10.90;79.00
14877;DHT22;69691;48.172;17.070;2023-11-21T00:12:41;10.90;78.70
14877;DHT22;69691;48.172;17.070;2023-11-21T00:15:08;10.90;78.40
14877;DHT22;69691;48.172;17.070;2023-11-21T00:17:37;10.90;78.50
14877;DHT22;69691;48.172;17.070;2023-11-21T00:20:04;10.80;78.30
14877;DHT22;69691;48.172;17.070;2023-11-21T00:22:35;10.80;78.30
14877;DHT22;69691;48.172;17.070;2023-11-21T00:25:02;10.80;78.40
14877;DHT22;69691;48.172;17.070;2023-11-21T00:27:30;10.80;78.30
14877;DHT22;69691;48.172;17.070;2023-11-21T00:29:56;10.90;78.50
14877;DHT22;69691;48.172;17.070;2023-11-21T00:32:22;10.80;78.50
14877;DHT22;69691;48.172;17.070;2023-11-21T00:34:47;10.70;78.80
14877;DHT22;69691;48.172;17.070;2023-11-21T00:37:14;10.60;79.40
14877;DHT22;69691;48.172;17.070;2023-11-21T00:39:41;10.50;79.90
14877;DHT22;69691;48.172;17.070;2023-11-21T00:42:07;10.40;80.50
14877;DHT22;69691;48.172;17.070;2023-11-21T00:44:34;10.30;81.10
14877;DHT22;69691;48.172;17.070;2023-11-21T00:47:00;10.20;81.30
14877;DHT22;69691;48.172;17.070;2023-11-21T00:49:25;10.10;81.90
14877;DHT22;69691;48.172;17.070;2023-11-21T00:51:53;10.10;81.80
14877;DHT22;69691;48.172;17.070;2023-11-21T00:54:19;10.00;82.00
14877;DHT22;69691;48.172;17.070;2023-11-21T00:56:45;9.90;83.50
14877;DHT22;69691;48.172;17.070;2023-11-21T00:59:13;9.80;83.50
14877;DHT22;69691;48.172;17.070;2023-11-21T01:01:40;9.80;84.00
14877;DHT22;69691;48.172;17.070;2023-11-21T01:04:06;9.70;84.50
14877;DHT22;69691;48.172;17.070;2023-11-21T01:06:33;9.60;85.20
14877;DHT22;69691;48.172;17.070;2023-11-21T01:08:59;9.60;85.90
14877;DHT22;69691;48.172;17.070;2023-11-21T01:11:25;9.50;86.40
14877;DHT22;69691;48.172;17.070;2023-11-21T01:13:52;9.40;86.80
14877;DHT22;69691;48.172;17.070;2023-11-21T01:16:18;9.30;87.40
14877;DHT22;69691;48.172;17.070;2023-11-21T01:18:44;9.20;87.50
14877;DHT22;69691;48.172;17.070;2023-11-21T01:21:11;9.10;87.80
14877;DHT22;69691;48.172;17.070;2023-11-21T01:23:37;9.10;88.30
14877;DHT22;69691;48.172;17.070;2023-11-21T01:26:03;9.00;88.80
14877;DHT22;69691;48.172;17.070;2023-11-21T01:28:29;9.00;88.90
14877;DHT22;69691;48.172;17.070;2023-11-21T01:30:55;9.00;89.40
14877;DHT22;69691;48.172;17.070;2023-11-21T01:33:22;8.90;90.00
14877;DHT22;69691;48.172;17.070;2023-11-21T01:35:51;8.80;90.20
14877;DHT22;69691;48.172;17.070;2023-11-21T01:38:21;8.80;90.40
14877;DHT22;69691;48.172;17.070;2023-11-21T01:40:47;8.70;90.40
14877;DHT22;69691;48.172;17.070;2023-11-21T01:43:13;8.70;90.50
14877;DHT22;69691;48.172;17.070;2023-11-21T01:45:39;8.60;90.50
14877;DHT22;69691;48.172;17.070;2023-11-21T01:48:05;8.60;90.50
14877;DHT22;69691;48.172;17.070;2023-11-21T01:50:34;8.60;90.60
14877;DHT22;69691;48.172;17.070;2023-11-21T01:53:00;8.50;90.60
14877;DHT22;69691;48.172;17.070;2023-11-21T01:55:27;8.50;90.70
14877;DHT22;69691;48.172;17.070;2023-11-21T01:57:54;8.40;90.90
14877;DHT22;69691;48.172;17.070;2023-11-21T02:00:22;8.40;90.90
14877;DHT22;69691;48.172;17.070;2023-11-21T02:02:49;8.30;91.00
14877;DHT22;69691;48.172;17.070;2023-11-21T02:05:15;8.30;91.10
14877;DHT22;69691;48.172;17.070;2023-11-21T02:07:44;8.30;91.20
14877;DHT22;69691;48.172;17.070;2023-11-21T02:10:14;8.30;91.10
14877;DHT22;69691;48.172;17.070;2023-11-21T02:12:41;8.20;91.10
14877;DHT22;69691;48.172;17.070;2023-11-21T02:15:09;8.20;91.20
14877;DHT22;69691;48.172;17.070;2023-11-21T02:17:43;8.20;91.20
14877;DHT22;69691;48.172;17.070;2023-11-21T02:20:11;8.20;91.60
14877;DHT22;69691;48.172;17.070;2023-11-21T02:22:52;8.10;91.20
14877;DHT22;69691;48.172;17.070;2023-11-21T02:25:33;8.10;91.20
14877;DHT22;69691;48.172;17.070;2023-11-21T02:28:01;8.10;91.30
14877;DHT22;69691;48.172;17.070;2023-11-21T02:30:28;8.10;91.30
14877;DHT22;69691;48.172;17.070;2023-11-21T02:32:54;8.00;91.30
14877;DHT22;69691;48.172;17.070;2023-11-21T02:35:22;8.00;91.30
14877;DHT22;69691;48.172;17.070;2023-11-21T02:37:49;8.00;91.40
14877;DHT22;69691;48.172;17.070;2023-11-21T02:40:15;8.00;91.50
14877;DHT22;69691;48.172;17.070;2023-11-21T02:42:46;8.00;91.50
14877;DHT22;69691;48.172;17.070;2023-11-21T02:45:16;8.00;91.50
14877;DHT22;69691;48.172;17.070;2023-11-21T02:47:43;8.00;91.60
14877;DHT22;69691;48.172;17.070;2023-11-21T02:50:09;8.00;91.70
14877;DHT22;69691;48.172;17.070;2023-11-21T02:52:35;8.00;91.80
14877;DHT22;69691;48.172;17.070;2023-11-21T02:55:05;8.00;92.00
14877;DHT22;69691;48.172;17.070;2023-11-21T02:57:31;8.00;92.10
14877;DHT22;69691;48.172;17.070;2023-11-21T02:59:57;8.00;92.00
14877;DHT22;69691;48.172;17.070;2023-11-21T03:02:22;8.00;92.00
14877;DHT22;69691;48.172;17.070;2023-11-21T03:04:48;8.00;92.10
14877;DHT22;69691;48.172;17.070;2023-11-21T03:07:15;8.00;92.20
14877;DHT22;69691;48.172;17.070;2023-11-21T03:09:41;8.00;92.30
14877;DHT22;69691;48.172;17.070;2023-11-21T03:12:09;8.00;92.60
14877;DHT22;69691;48.172;17.070;2023-11-21T03:14:35;8.10;92.70
14877;DHT22;69691;48.172;17.070;2023-11-21T03:17:01;8.10;92.60
14877;DHT22;69691;48.172;17.070;2023-11-21T03:19:28;8.10;92.70
14877;DHT22;69691;48.172;17.070;2023-11-21T03:21:54;8.10;93.00
14877;DHT22;69691;48.172;17.070;2023-11-21T03:24:19;8.10;92.70
14877;DHT22;69691;48.172;17.070;2023-11-21T03:26:46;8.10;92.80
14877;DHT22;69691;48.172;17.070;2023-11-21T03:29:12;8.10;92.80
14877;DHT22;69691;48.172;17.070;2023-11-21T03:31:39;8.10;92.80
14877;DHT22;69691;48.172;17.070;2023-11-21T03:34:05;8.20;92.80
14877;DHT22;69691;48.172;17.070;2023-11-21T03:36:30;8.20;92.60
14877;DHT22;69691;48.172;17.070;2023-11-21T03:38:56;8.20;92.50
14877;DHT22;69691;48.172;17.070;2023-11-21T03:41:22;8.10;92.40
14877;DHT22;69691;48.172;17.070;2023-11-21T03:43:49;8.10;92.50
14877;DHT22;69691;48.172;17.070;2023-11-21T03:46:14;8.10;92.50
14877;DHT22;69691;48.172;17.070;2023-11-21T03:48:42;8.00;92.60
14877;DHT22;69691;48.172;17.070;2023-11-21T03:51:08;7.90;92.70
14877;DHT22;69691;48.172;17.070;2023-11-21T03:53:34;7.90;92.80
14877;DHT22;69691;48.172;17.070;2023-11-21T03:56:02;7.90;92.80
14877;DHT22;69691;48.172;17.070;2023-11-21T03:58:29;7.90;92.70
14877;DHT22;69691;48.172;17.070;2023-11-21T04:00:55;7.80;92.70
14877;DHT22;69691;48.172;17.070;2023-11-21T04:03:21;7.80;92.60
14877;DHT22;69691;48.172;17.070;2023-11-21T04:05:46;7.80;92.60
14877;DHT22;69691;48.172;17.070;2023-11-21T04:08:12;7.70;92.70
14877;DHT22;69691;48.172;17.070;2023-11-21T04:10:38;7.60;92.80
14877;DHT22;69691;48.172;17.070;2023-11-21T04:13:05;7.60;92.90
14877;DHT22;69691;48.172;17.070;2023-11-21T04:15:32;7.50;93.10
14877;DHT22;69691;48.172;17.070;2023-11-21T04:17:58;7.50;93.30
14877;DHT22;69691;48.172;17.070;2023-11-21T04:20:24;7.50;93.30
14877;DHT22;69691;48.172;17.070;2023-11-21T04:22:50;7.50;93.40
14877;DHT22;69691;48.172;17.070;2023-11-21T04:25:16;7.40;93.30
14877;DHT22;69691;48.172;17.070;2023-11-21T04:27:44;7.40;93.50
14877;DHT22;69691;48.172;17.070;2023-11-21T04:30:11;7.40;93.60
14877;DHT22;69691;48.172;17.070;2023-11-21T04:32:37;7.40;93.60
14877;DHT22;69691;48.172;17.070;2023-11-21T04:35:05;7.40;93.40
14877;DHT22;69691;48.172;17.070;2023-11-21T04:37:31;7.40;93.40
14877;DHT22;69691;48.172;17.070;2023-11-21T04:39:57;7.40;93.40
14877;DHT22;69691;48.172;17.070;2023-11-21T04:42:23;7.30;93.50
14877;DHT22;69691;48.172;17.070;2023-11-21T04:44:49;7.30;93.60
14877;DHT22;69691;48.172;17.070;2023-11-21T04:47:15;7.20;93.60
14877;DHT22;69691;48.172;17.070;2023-11-21T04:49:46;7.20;93.70
14877;DHT22;69691;48.172;17.070;2023-11-21T04:52:15;7.20;93.90
14877;DHT22;69691;48.172;17.070;2023-11-21T04:54:40;7.10;93.80
14877;DHT22;69691;48.172;17.070;2023-11-21T04:57:06;7.10;93.90
14877;DHT22;69691;48.172;17.070;2023-11-21T04:59:34;7.10;94.00
14877;DHT22;69691;48.172;17.070;2023-11-21T05:02:00;7.10;94.10
14877;DHT22;69691;48.172;17.070;2023-11-21T05:04:26;7.10;94.10
14877;DHT22;69691;48.172;17.070;2023-11-21T05:06:52;7.10;94.00
14877;DHT22;69691;48.172;17.070;2023-11-21T05:09:18;7.10;94.00
14877;DHT22;69691;48.172;17.070;2023-11-21T05:11:44;7.10;94.00
14877;DHT22;69691;48.172;17.070;2023-11-21T05:14:10;7.20;93.80
14877;DHT22;69691;48.172;17.070;2023-11-21T05:16:36;7.10;93.80
14877;DHT22;69691;48.172;17.070;2023-11-21T05:19:02;7.10;93.90
14877;DHT22;69691;48.172;17.070;2023-11-21T05:21:30;7.10;94.10
14877;DHT22;69691;48.172;17.070;2023-11-21T05:23:59;7.00;94.20
14877;DHT22;69691;48.172;17.070;2023-11-21T05:26:24;7.10;94.10
14877;DHT22;69691;48.172;17.070;2023-11-21T05:28:50;7.00;94.20
14877;DHT22;69691;48.172;17.070;2023-11-21T05:31:16;7.00;94.30
14877;DHT22;69691;48.172;17.070;2023-11-21T05:33:42;7.00;94.20
14877;DHT22;69691;48.172;17.070;2023-11-21T05:36:08;7.00;94.30
14877;DHT22;69691;48.172;17.070;2023-11-21T05:38:36;7.00;94.20
14877;DHT22;69691;48.172;17.070;2023-11-21T05:41:02;7.10;94.00
14877;DHT22;69691;48.172;17.070;2023-11-21T05:43:30;7.10;93.90
14877;DHT22;69691;48.172;17.070;2023-11-21T05:45:56;7.10;93.80
14877;DHT22;69691;48.172;17.070;2023-11-21T05:48:22;7.10;93.70
14877;DHT22;69691;48.172;17.070;2023-11-21T05:50:49;7.00;93.70
14877;DHT22;69691;48.172;17.070;2023-11-21T05:53:15;7.00;93.80
14877;DHT22;69691;48.172;17.070;2023-11-21T05:55:42;7.00;93.80
14877;DHT22;69691;48.172;17.070;2023-11-21T05:58:08;7.00;93.80
14877;DHT22;69691;48.172;17.070;2023-11-21T06:00:34;6.90;93.80
14877;DHT22;69691;48.172;17.070;2023-11-21T06:03:00;6.90;93.90
14877;DHT22;69691;48.172;17.070;2023-11-21T06:05:26;6.90;93.90
14877;DHT22;69691;48.172;17.070;2023-11-21T06:07:53;6.90;94.00
14877;DHT22;69691;48.172;17.070;2023-11-21T06:10:21;6.90;94.10
14877;DHT22;69691;48.172;17.070;2023-11-21T06:12:47;6.90;94.10
14877;DHT22;69691;48.172;17.070;2023-11-21T06:15:14;6.90;94.20
14877;DHT22;69691;48.172;17.070;2023-11-21T06:17:41;6.90;94.20
14877;DHT22;69691;48.172;17.070;2023-11-21T06:20:09;7.00;94.20
14877;DHT22;69691;48.172;17.070;2023-11-21T06:22:41;7.00;94.10
14877;DHT22;69691;48.172;17.070;2023-11-21T06:25:08;7.00;94.30
14877;DHT22;69691;48.172;17.070;2023-11-21T06:27:37;7.10;94.50
14877;DHT22;69691;48.172;17.070;2023-11-21T06:30:04;7.20;94.80
14877;DHT22;69691;48.172;17.070;2023-11-21T06:32:32;7.40;95.00
14877;DHT22;69691;48.172;17.070;2023-11-21T06:34:58;7.50;95.00
14877;DHT22;69691;48.172;17.070;2023-11-21T06:37:28;7.60;95.20
14877;DHT22;69691;48.172;17.070;2023-11-21T06:39:54;7.80;95.20
14877;DHT22;69691;48.172;17.070;2023-11-21T06:42:22;7.90;95.00
14877;DHT22;69691;48.172;17.070;2023-11-21T06:44:49;8.00;94.90
14877;DHT22;69691;48.172;17.070;2023-11-21T06:47:36;8.10;95.00
14877;DHT22;69691;48.172;17.070;2023-11-21T06:50:03;8.30;95.10
14877;DHT22;69691;48.172;17.070;2023-11-21T06:52:30;8.40;95.00
14877;DHT22;69691;48.172;17.070;2023-11-21T06:54:55;8.40;95.00
14877;DHT22;69691;48.172;17.070;2023-11-21T06:57:23;8.60;94.80
14877;DHT22;69691;48.172;17.070;2023-11-21T06:59:49;8.60;94.30
14877;DHT22;69691;48.172;17.070;2023-11-21T07:02:16;8.70;94.50
14877;DHT22;69691;48.172;17.070;2023-11-21T07:04:45;8.80;94.50
14877;DHT22;69691;48.172;17.070;2023-11-21T07:07:12;8.90;94.40
14877;DHT22;69691;48.172;17.070;2023-11-21T07:09:38;9.00;94.30
14877;DHT22;69691;48.172;17.070;2023-11-21T07:12:04;9.10;94.30
14877;DHT22;69691;48.172;17.070;2023-11-21T07:14:35;9.20;94.10
14877;DHT22;69691;48.172;17.070;2023-11-21T07:17:02;9.30;93.80
14877;DHT22;69691;48.172;17.070;2023-11-21T07:19:28;9.40;93.70
14877;DHT22;69691;48.172;17.070;2023-11-21T07:21:54;9.50;93.50
14877;DHT22;69691;48.172;17.070;2023-11-21T07:24:21;9.60;93.50
14877;DHT22;69691;48.172;17.070;2023-11-21T07:26:48;9.60;93.30
14877;DHT22;69691;48.172;17.070;2023-11-21T07:29:14;9.70;93.20
14877;DHT22;69691;48.172;17.070;2023-11-21T07:31:40;9.80;93.10
14877;DHT22;69691;48.172;17.070;2023-11-21T07:34:06;9.90;93.00
14877;DHT22;69691;48.172;17.070;2023-11-21T07:36:34;10.00;92.30
14877;DHT22;69691;48.172;17.070;2023-11-21T07:38:59;10.10;92.00
14877;DHT22;69691;48.172;17.070;2023-11-21T07:41:27;10.20;92.00
14877;DHT22;69691;48.172;17.070;2023-11-21T07:43:55;10.20;92.00
14877;DHT22;69691;48.172;17.070;2023-11-21T07:46:21;10.20;91.90
14877;DHT22;69691;48.172;17.070;2023-11-21T07:48:47;10.20;92.30
14877;DHT22;69691;48.172;17.070;2023-11-21T07:51:13;10.30;92.80
14877;DHT22;69691;48.172;17.070;2023-11-21T07:53:39;10.40;92.50
14877;DHT22;69691;48.172;17.070;2023-11-21T07:56:07;10.50;92.50
14877;DHT22;69691;48.172;17.070;2023-11-21T07:58:34;10.40;92.50
14877;DHT22;69691;48.172;17.070;2023-11-21T08:01:01;10.40;92.70
14877;DHT22;69691;48.172;17.070;2023-11-21T08:03:27;10.50;93.00
14877;DHT22;69691;48.172;17.070;2023-11-21T08:05:56;10.60;93.10
14877;DHT22;69691;48.172;17.070;2023-11-21T08:08:25;10.70;93.00
14877;DHT22;69691;48.172;17.070;2023-11-21T08:10:52;10.70;93.00
14877;DHT22;69691;48.172;17.070;2023-11-21T08:13:25;10.70;93.10
14877;DHT22;69691;48.172;17.070;2023-11-21T08:15:54;10.80;93.20
14877;DHT22;69691;48.172;17.070;2023-11-21T08:18:20;10.80;93.20
14877;DHT22;69691;48.172;17.070;2023-11-21T08:20:46;11.00;93.60
14877;DHT22;69691;48.172;17.070;2023-11-21T08:23:15;11.10;93.60
14877;DHT22;69691;48.172;17.070;2023-11-21T08:25:44;11.30;93.40
14877;DHT22;69691;48.172;17.070;2023-11-21T08:28:11;11.40;93.20
14877;DHT22;69691;48.172;17.070;2023-11-21T08:30:37;11.50;93.30
14877;DHT22;69691;48.172;17.070;2023-11-21T08:33:03;11.60;93.50
14877;DHT22;69691;48.172;17.070;2023-11-21T08:35:29;11.70;93.50
14877;DHT22;69691;48.172;17.070;2023-11-21T08:37:56;11.60;93.40
14877;DHT22;69691;48.172;17.070;2023-11-21T08:40:22;11.70;93.30
14877;DHT22;69691;48.172;17.070;2023-11-21T08:42:49;11.80;93.60
14877;DHT22;69691;48.172;17.070;2023-11-21T08:45:17;11.90;93.90
14877;DHT22;69691;48.172;17.070;2023-11-21T08:47:43;12.00;93.90
14877;DHT22;69691;48.172;17.070;2023-11-21T08:50:12;12.20;93.70
14877;DHT22;69691;48.172;17.070;2023-11-21T08:52:39;12.40;93.80
14877;DHT22;69691;48.172;17.070;2023-11-21T08:55:06;12.60;93.40
14877;DHT22;69691;48.172;17.070;2023-11-21T08:57:38;12.70;92.70
14877;DHT22;69691;48.172;17.070;2023-11-21T09:00:07;12.80;92.40
14877;DHT22;69691;48.172;17.070;2023-11-21T09:02:43;12.80;92.00
14877;DHT22;69691;48.172;17.070;2023-11-21T09:05:12;12.80;91.70
14877;DHT22;69691;48.172;17.070;2023-11-21T09:07:40;12.90;91.40
14877;DHT22;69691;48.172;17.070;2023-11-21T09:10:07;12.90;91.70
14877;DHT22;69691;48.172;17.070;2023-11-21T09:12:35;13.10;91.70
14877;DHT22;69691;48.172;17.070;2023-11-21T09:15:06;13.20;91.60
14877;DHT22;69691;48.172;17.070;2023-11-21T09:17:34;13.30;90.90
14877;DHT22;69691;48.172;17.070;2023-11-21T09:20:00;13.30;90.20
14877;DHT22;69691;48.172;17.070;2023-11-21T09:22:26;13.30;90.00
14877;DHT22;69691;48.172;17.070;2023-11-21T09:24:52;13.20;90.20
14877;DHT22;69691;48.172;17.070;2023-11-21T09:27:19;13.00;89.60
14877;DHT22;69691;48.172;17.070;2023-11-21T09:29:45;12.90;89.90
14877;DHT22;69691;48.172;17.070;2023-11-21T09:32:14;12.80;89.40
14877;DHT22;69691;48.172;17.070;2023-11-21T09:34:44;12.60;89.40
14877;DHT22;69691;48.172;17.070;2023-11-21T09:37:10;12.50;89.40
14877;DHT22;69691;48.172;17.070;2023-11-21T09:39:36;12.30;89.70
14877;DHT22;69691;48.172;17.070;2023-11-21T09:42:13;12.10;89.50
14877;DHT22;69691;48.172;17.070;2023-11-21T09:44:57;12.00;90.10
14877;DHT22;69691;48.172;17.070;2023-11-21T09:47:27;11.80;90.10
14877;DHT22;69691;48.172;17.070;2023-11-21T09:49:54;11.80;90.40
14877;DHT22;69691;48.172;17.070;2023-11-21T09:52:26;11.80;90.70
14877;DHT22;69691;48.172;17.070;2023-11-21T09:54:53;11.80;90.80
14877;DHT22;69691;48.172;17.070;2023-11-21T09:57:24;11.70;90.90
14877;DHT22;69691;48.172;17.070;2023-11-21T09:59:54;11.70;91.00
14877;DHT22;69691;48.172;17.070;2023-11-21T10:02:27;11.60;90.70
14877;DHT22;69691;48.172;17.070;2023-11-21T10:04:59;11.50;90.80
14877;DHT22;69691;48.172;17.070;2023-11-21T10:07:26;11.50;91.10
14877;DHT22;69691;48.172;17.070;2023-11-21T10:09:53;11.40;90.90
14877;DHT22;69691;48.172;17.070;2023-11-21T10:12:19;11.40;90.80
14877;DHT22;69691;48.172;17.070;2023-11-21T10:14:49;11.40;90.70
14877;DHT22;69691;48.172;17.070;2023-11-21T10:17:17;11.40;90.80
14877;DHT22;69691;48.172;17.070;2023-11-21T10:19:47;11.30;90.80
14877;DHT22;69691;48.172;17.070;2023-11-21T10:22:15;11.30;90.80
14877;DHT22;69691;48.172;17.070;2023-11-21T10:24:41;11.40;90.30
14877;DHT22;69691;48.172;17.070;2023-11-21T10:27:09;11.40;90.30
14877;DHT22;69691;48.172;17.070;2023-11-21T10:29:35;11.50;90.20
14877;DHT22;69691;48.172;17.070;2023-11-21T10:32:04;11.60;90.10
14877;DHT22;69691;48.172;17.070;2023-11-21T10:34:31;11.60;89.30
14877;DHT22;69691;48.172;17.070;2023-11-21T10:36:58;11.70;88.50
14877;DHT22;69691;48.172;17.070;2023-11-21T10:39:24;11.80;89.50
14877;DHT22;69691;48.172;17.070;2023-11-21T10:41:56;11.80;88.70
14877;DHT22;69691;48.172;17.070;2023-11-21T10:44:22;11.90;88.50
14877;DHT22;69691;48.172;17.070;2023-11-21T10:46:53;12.00;87.70
14877;DHT22;69691;48.172;17.070;2023-11-21T10:49:25;12.20;88.10
14877;DHT22;69691;48.172;17.070;2023-11-21T10:51:53;12.40;87.00
14877;DHT22;69691;48.172;17.070;2023-11-21T10:54:20;12.50;87.20
14877;DHT22;69691;48.172;17.070;2023-11-21T10:56:53;12.80;85.80
14877;DHT22;69691;48.172;17.070;2023-11-21T10:59:22;13.00;85.00
14877;DHT22;69691;48.172;17.070;2023-11-21T11:01:51;13.10;82.80
14877;DHT22;69691;48.172;17.070;2023-11-21T11:04:19;13.20;82.80
14877;DHT22;69691;48.172;17.070;2023-11-21T11:06:48;13.30;82.20
14877;DHT22;69691;48.172;17.070;2023-11-21T11:09:17;13.30;82.00
14877;DHT22;69691;48.172;17.070;2023-11-21T11:11:44;13.30;81.30
14877;DHT22;69691;48.172;17.070;2023-11-21T11:14:11;13.30;82.10
14877;DHT22;69691;48.172;17.070;2023-11-21T11:16:41;13.30;81.50
14877;DHT22;69691;48.172;17.070;2023-11-21T11:19:11;13.30;82.40
14877;DHT22;69691;48.172;17.070;2023-11-21T11:24:58;13.30;82.40
14877;DHT22;69691;48.172;17.070;2023-11-21T11:36:34;12.80;82.80
14877;DHT22;69691;48.172;17.070;2023-11-21T11:39:03;12.70;83.00
14877;DHT22;69691;48.172;17.070;2023-11-21T11:41:53;12.60;83.40
14877;DHT22;69691;48.172;17.070;2023-11-21T11:47:21;12.60;83.00
14877;DHT22;69691;48.172;17.070;2023-11-21T11:50:19;12.50;82.60
14877;DHT22;69691;48.172;17.070;2023-11-21T11:52:49;12.50;82.70
14877;DHT22;69691;48.172;17.070;2023-11-21T11:55:18;12.40;83.10
14877;DHT22;69691;48.172;17.070;2023-11-21T11:57:47;12.40;82.50
14877;DHT22;69691;48.172;17.070;2023-11-21T12:02:49;12.40;82.20
14877;DHT22;69691;48.172;17.070;2023-11-21T12:05:19;12.40;81.90
14877;DHT22;69691;48.172;17.070;2023-11-21T12:07:53;12.30;82.20
14877;DHT22;69691;48.172;17.070;2023-11-21T12:10:22;12.30;82.50
14877;DHT22;69691;48.172;17.070;2023-11-21T12:12:57;12.30;82.70
14877;DHT22;69691;48.172;17.070;2023-11-21T12:15:27;12.30;83.20
14877;DHT22;69691;48.172;17.070;2023-11-21T12:17:57;12.30;82.40
14877;DHT22;69691;48.172;17.070;2023-11-21T12:20:27;12.30;81.80
14877;DHT22;69691;48.172;17.070;2023-11-21T12:22:58;12.40;82.10
14877;DHT22;69691;48.172;17.070;2023-11-21T12:25:31;12.40;82.30
14877;DHT22;69691;48.172;17.070;2023-11-21T12:27:59;12.40;82.00
14877;DHT22;69691;48.172;17.070;2023-11-21T12:30:29;12.40;82.00
14877;DHT22;69691;48.172;17.070;2023-11-21T12:32:57;12.50;81.70
14877;DHT22;69691;48.172;17.070;2023-11-21T12:35:31;12.50;81.20
14877;DHT22;69691;48.172;17.070;2023-11-21T12:38:00;12.60;81.00
14877;DHT22;69691;48.172;17.070;2023-11-21T12:40:34;12.60;80.40
14877;DHT22;69691;48.172;17.070;2023-11-21T12:43:01;12.70;80.00
14877;DHT22;69691;48.172;17.070;2023-11-21T12:45:30;12.70;79.90
14877;DHT22;69691;48.172;17.070;2023-11-21T12:47:57;12.60;79.20
14877;DHT22;69691;48.172;17.070;2023-11-21T12:50:27;12.70;79.50
14877;DHT22;69691;48.172;17.070;2023-11-21T12:52:58;12.60;79.70
14877;DHT22;69691;48.172;17.070;2023-11-21T12:55:25;12.60;79.70
14877;DHT22;69691;48.172;17.070;2023-11-21T12:57:53;12.60;80.30
14877;DHT22;69691;48.172;17.070;2023-11-21T13:00:28;12.70;80.20
14877;DHT22;69691;48.172;17.070;2023-11-21T13:02:58;12.70;80.00
14877;DHT22;69691;48.172;17.070;2023-11-21T13:05:42;12.70;80.40
14877;DHT22;69691;48.172;17.070;2023-11-21T13:08:13;12.70;80.60
14877;DHT22;69691;48.172;17.070;2023-11-21T13:10:40;12.70;80.20
14877;DHT22;69691;48.172;17.070;2023-11-21T13:13:10;12.60;80.40
14877;DHT22;69691;48.172;17.070;2023-11-21T13:15:54;12.50;80.70
14877;DHT22;69691;48.172;17.070;2023-11-21T13:18:26;12.40;81.90
14877;DHT22;69691;48.172;17.070;2023-11-21T13:20:57;12.40;81.80
14877;DHT22;69691;48.172;17.070;2023-11-21T13:23:25;12.40;81.90
14877;DHT22;69691;48.172;17.070;2023-11-21T13:25:52;12.40;83.10
14877;DHT22;69691;48.172;17.070;2023-11-21T13:28:19;12.40;82.30
14877;DHT22;69691;48.172;17.070;2023-11-21T13:30:50;12.40;83.10
14877;DHT22;69691;48.172;17.070;2023-11-21T13:33:18;12.40;84.10
14877;DHT22;69691;48.172;17.070;2023-11-21T13:35:48;12.30;84.70
14877;DHT22;69691;48.172;17.070;2023-11-21T13:38:16;12.30;85.60
14877;DHT22;69691;48.172;17.070;2023-11-21T13:40:51;12.20;85.50
14877;DHT22;69691;48.172;17.070;2023-11-21T13:43:24;12.20;85.70
14877;DHT22;69691;48.172;17.070;2023-11-21T13:45:52;12.10;86.50
14877;DHT22;69691;48.172;17.070;2023-11-21T13:48:37;12.10;87.10
14877;DHT22;69691;48.172;17.070;2023-11-21T13:51:08;12.10;87.60
14877;DHT22;69691;48.172;17.070;2023-11-21T13:53:45;12.10;88.20
14877;DHT22;69691;48.172;17.070;2023-11-21T13:56:15;12.10;88.40
14877;DHT22;69691;48.172;17.070;2023-11-21T13:58:45;12.00;88.60
14877;DHT22;69691;48.172;17.070;2023-11-21T14:01:22;12.00;89.20
14877;DHT22;69691;48.172;17.070;2023-11-21T14:03:55;12.00;90.20
14877;DHT22;69691;48.172;17.070;2023-11-21T14:06:46;11.90;89.90
14877;DHT22;69691;48.172;17.070;2023-11-21T14:09:21;11.90;90.00
14877;DHT22;69691;48.172;17.070;2023-11-21T14:11:59;11.90;90.00
14877;DHT22;69691;48.172;17.070;2023-11-21T14:14:26;11.80;90.20
14877;DHT22;69691;48.172;17.070;2023-11-21T14:16:56;11.80;90.40
14877;DHT22;69691;48.172;17.070;2023-11-21T14:19:22;11.80;90.30
14877;DHT22;69691;48.172;17.070;2023-11-21T14:21:53;11.70;90.20
14877;DHT22;69691;48.172;17.070;2023-11-21T14:24:19;11.60;90.40
14877;DHT22;69691;48.172;17.070;2023-11-21T14:26:47;11.60;90.60
14877;DHT22;69691;48.172;17.070;2023-11-21T14:29:17;11.60;90.80
14877;DHT22;69691;48.172;17.070;2023-11-21T14:31:48;11.60;90.90
14877;DHT22;69691;48.172;17.070;2023-11-21T14:34:14;11.60;90.80
14877;DHT22;69691;48.172;17.070;2023-11-21T14:36:41;11.60;90.80
14877;DHT22;69691;48.172;17.070;2023-11-21T14:39:07;11.50;90.70
14877;DHT22;69691;48.172;17.070;2023-11-21T14:41:36;11.40;90.80
14877;DHT22;69691;48.172;17.070;2023-11-21T14:44:04;11.30;91.00
14877;DHT22;69691;48.172;17.070;2023-11-21T14:46:32;11.20;91.10
14877;DHT22;69691;48.172;17.070;2023-11-21T14:49:00;11.10;91.20
14877;DHT22;69691;48.172;17.070;2023-11-21T14:51:46;10.90;91.40
14877;DHT22;69691;48.172;17.070;2023-11-21T14:54:33;10.90;91.60
14877;DHT22;69691;48.172;17.070;2023-11-21T14:57:12;10.80;91.80
14877;DHT22;69691;48.172;17.070;2023-11-21T14:59:46;10.90;92.00
14877;DHT22;69691;48.172;17.070;2023-11-21T15:02:16;10.90;92.10
14877;DHT22;69691;48.172;17.070;2023-11-21T15:04:47;10.90;92.10
14877;DHT22;69691;48.172;17.070;2023-11-21T15:07:14;10.90;91.90
14877;DHT22;69691;48.172;17.070;2023-11-21T15:09:40;10.80;91.60
14877;DHT22;69691;48.172;17.070;2023-11-21T15:12:10;10.70;91.60
14877;DHT22;69691;48.172;17.070;2023-11-21T15:14:46;10.60;91.70
14877;DHT22;69691;48.172;17.070;2023-11-21T15:17:16;10.60;91.70
14877;DHT22;69691;48.172;17.070;2023-11-21T15:19:56;10.40;91.70
14877;DHT22;69691;48.172;17.070;2023-11-21T15:22:23;10.30;91.80
14877;DHT22;69691;48.172;17.070;2023-11-21T15:24:49;10.20;91.90
14877;DHT22;69691;48.172;17.070;2023-11-21T15:27:16;10.10;91.90
14877;DHT22;69691;48.172;17.070;2023-11-21T15:29:42;10.00;92.00
14877;DHT22;69691;48.172;17.070;2023-11-21T15:32:09;9.90;92.70
14877;DHT22;69691;48.172;17.070;2023-11-21T15:34:36;9.80;92.80
14877;DHT22;69691;48.172;17.070;2023-11-21T15:37:04;9.70;93.00
14877;DHT22;69691;48.172;17.070;2023-11-21T15:39:33;9.60;93.20
14877;DHT22;69691;48.172;17.070;2023-11-21T15:41:59;9.50;93.30
14877;DHT22;69691;48.172;17.070;2023-11-21T15:44:25;9.40;93.50
14877;DHT22;69691;48.172;17.070;2023-11-21T15:46:55;9.30;93.70